Marathon, FL (33050)

6:33 AM EDT on September 01, 2015 (GMT -0400)
APRSWXNET | | Change Station
CLOSE
Current Station
Personal Weather Station
Location: Marathon, FL
Elevation: 15 ft
Nearby Weather Stations

Elev 15 ft 24.74 °N, 80.98 °W | Updated 29 minutes ago

Clear
Clear
83 °F
Feels Like 92 °F
N
6
Wind Variable Wind from ESE
Gusts 11.0 mph

Today
High -- | Low -- °F
--% Chance of Precip.
Yesterday
High -- | Low -- °F
Precip. -- in
7:04 AM 7:42 PM
Waning Gibbous, 90% visible
Pressure 30.02 in
Visibility 10.0 miles
Clouds Scattered Clouds 2200 ft
Heat Index 92 °F
Dew Point 77 °F
Humidity 83%
Rainfall in
Snow Depth Not available.
UV 0 out of 12
Pollen 4.20 out of 12
Air Quality Not available.
Flu Activity Not available.
SPECI KNQX 010955Z 12006KT 10SM SCT022 28/24 A3002 RMK AO2 T02830244 $
Pressure 30.02 in
Visibility 10.0 miles
Clouds Scattered Clouds 2200 ft
Heat Index 92 °F
Dew Point 77 °F
Humidity 83%
Rainfall in
Snow Depth Not available.
UV 0 out of 12
Pollen 4.20 out of 12
Air Quality Not available.
Flu Activity Not available.
SPECI KNQX 010955Z 12006KT 10SM SCT022 28/24 A3002 RMK AO2 T02830244 $
Nowcast | as of 5:02 am EDT on September 1, 2015

Until 630 am...isolated showers will move to the northwest at around 10 knots through The Straits of Florida...Hawk Channel...and the coastal waters adjacent to the Upper Keys. Mariners and boaters should expect only brief periods of poor visibility within isolated pockets of heavy rain.

×

10-Day Weather Forecast

×

Almanac

Astronomy

Sep. 01, 2015 Rise Set
Actual Time
Civil Twilight
Nautical Twilight
Astronomical Twilight
Moon
Length of Visible Light
Length of Day
Tomorrow will be .
, % of the Moon is Illuminated

Today's Extremes

State Highs State Lows

Community

WunderPhotos

Upload Photos

1,851,501 photos uploaded!

WunderBlogs® & News

Nearby

Air Quality

  Air Quality AQ Index Pollutant
Not available.

Snow Depth

Station Depth Elevation

Earthquake Activity

City Distance Mag. Time & Date
Minimum magnitude displayed is 2.5.

Coastal Water Temperatures

Place Temperature

Stations

Nearby Weather Stations

Station Location Temp. Windchill Dew Point Humidity Wind Precip. Elev Updated Type